weather.gov     
National Weather Service

Terminal Aerodrome Forecast
NWS Homepage
This page is being discontinued on March 12, 2014.
The same data is available at this site. Please update your bookmarks.
Thank you, and we apologize for the inconvenience.
Please send an email to SR-SRH.Webmaster@noaa.gov with any concerns.


Current Version
Previous Version:    01  02  03  04  05  06  07  08  09  10  11  12  13  14  15  16  17  18  19  20  21  22  23  24  25  26  27  28  29  30  
   31  32  33  34  35  36  37  38  39  40  41  42  43  44  45  46  47  48  49  50  51  52  53  54  55  56  57  
[Printable]
015
FTUS43 KDTX 282020 AAA
TAFDTW
TAF AMD
KDTW 282020Z 2820/2924 19010KT P6SM -SHSN SCT028 BKN035 OVC060
      TEMPO 2821/2823 4SM -SHSN BKN028 OVC035
     FM282300 18008KT P6SM -SN BKN045 OVC090
     FM290400 17008KT 4SM -SN BKN035 OVC050
     FM290900 15008KT P6SM BKN060 OVC100
     FM291300 19010KT P6SM BKN100=


015
FTUS43 KDTX 282020 AAA
TAFDTW
TAF AMD
KDTW 282020Z 2820/2924 19010KT P6SM -SHSN SCT028 BKN035 OVC060
      TEMPO 2821/2823 4SM -SHSN BKN028 OVC035
     FM282300 18008KT P6SM -SN BKN045 OVC090
     FM290400 17008KT 4SM -SN BKN035 OVC050
     FM290900 15008KT P6SM BKN060 OVC100
     FM291300 19010KT P6SM BKN100=




U.S. Dept. of Commerce
NOAA National Weather Service
1325 East West Highway
Silver Spring, MD 20910
E-mail: w-nws.webmaster@noaa.gov
Page last modified: May 16, 2007
NATIONAL WEATHER SERVICE: for Safety, for Work, for Fun - FOR LIFE